Glen, MS (38846)

07:16 PM CDT del 22 Settembre 2014 (GMT -0500)
KMSCORIN4 | Change Station
CLOSE
Current Station
Stazione meteo personale
Location: Corinth, MS
Altitudine: 471 ft
Stazioni meteo nelle vicinanze

Alt. 471 ft 34.93 °N, 88.51 °W | Updated 1 minute ago

Sereno
Sereno
68.4 °F
Sembra 68.4 °F
N
1.0
Vento Variabile Vento da NNO
Gusts 3.0 mph

Oggi
Massima -- | Minima -- °F
--% Possibilità di precip.
Ieri
Massima -- | Minima -- °F
Precip. -- in
6:41 AM 6:50 PM
Luna calante, 1% visible
Pressione 30.14 in
Visibilità 10.0 miglia
Nuvole Sereno
Punto di rugiada 53 °F
Umidità 58%
Piovosità 0.00 in
Spessore del manto nevoso Non disponibile.
Raggi UV 0.0 fuori da 12
Polline 7.20 fuori da 12
Qualità dell'aria Non disponibile.
Flu Activity Non disponibile.
METAR KCRX 222355Z AUTO 36005KT 10SM CLR 20/10 A3014 RMK AO2

More Conditions Fewer Conditions

Pressione 30.14 in
Visibilità 10.0 miglia
Nuvole Sereno
Punto di rugiada 53 °F
Umidità 58%
Piovosità 0.00 in
Spessore del manto nevoso Non disponibile.
Raggi UV 0.0 fuori da 12
Polline 7.20 fuori da 12
Qualità dell'aria Non disponibile.
Flu Activity Non disponibile.
METAR KCRX 222355Z AUTO 36005KT 10SM CLR 20/10 A3014 RMK AO2

More Conditions Fewer Conditions

10-Day Weather Forecast

Almanac

Astronomia

Sep. 22, 2014 Alba Tramonto
Ora attuale 06:41 CDT 18:50 CDT
Crepuscolo civile 06:16 CDT 19:15 CDT
Crepuscolo nautico 05:47 CDT 19:45 CDT
Crepuscolo astronomico 05:17 CDT 20:14 CDT
Luna 05:12 CDT (9/22) 17:56 CDT (9/22)
Estensione della luce visibile 12h 59m
Lunghezza del giorno
12h 08m
Tomorrow will be 2m 10s shorter.
Luna calante, 1% of the Moon is Illuminated
Oggi
Luna calante
Set 24
Nuovo
Ott 1
Primo quarto
Ott 8
Luna piena
Ott 15
Ultimo quarto

Gli estremi di oggi

State Highs State Lows

Community

WunderPhotos

Upload Photos

1,755,562 foto caricate!

Nearby

Profondità neve

Stazione Profondità Altitudine
Non sono state evidenziate nuove nevicate

Attività sismica

Città  Distanza Mag. Data & Ora
Non sono state riportate attività sismiche nelle vicinanze.
Minimo Magnitudo Mostrato è 2.5.

Temperature delle acque costiere

Località Temperatura
Nessun dato dalle stazioni

Stazioni meteo nelle vicinanze